sensor_id;sensor_type;location;lat;lon;timestamp;pressure;altitude;pressure_sealevel;temperature;humidity
40730;BME280;26418;50.070;8.436;2023-08-30T00:00:10;99339.25;;;14.87;87.96
40730;BME280;26418;50.070;8.436;2023-08-30T00:02:35;99333.34;;;14.85;88.26
40730;BME280;26418;50.070;8.436;2023-08-30T00:05:03;99338.34;;;14.83;88.28
40730;BME280;26418;50.070;8.436;2023-08-30T00:07:29;99339.91;;;14.84;88.29
40730;BME280;26418;50.070;8.436;2023-08-30T00:09:58;99337.19;;;14.84;88.19
40730;BME280;26418;50.070;8.436;2023-08-30T00:12:24;99338.13;;;14.88;88.33
40730;BME280;26418;50.070;8.436;2023-08-30T00:14:51;99336.97;;;14.89;88.52
40730;BME280;26418;50.070;8.436;2023-08-30T00:17:17;99329.94;;;14.88;88.30
40730;BME280;26418;50.070;8.436;2023-08-30T00:19:42;99335.72;;;14.86;88.33
40730;BME280;26418;50.070;8.436;2023-08-30T00:22:08;99334.03;;;14.82;88.37
40730;BME280;26418;50.070;8.436;2023-08-30T00:24:34;99339.34;;;14.78;88.59
40730;BME280;26418;50.070;8.436;2023-08-30T00:27:01;99343.56;;;14.75;88.98
40730;BME280;26418;50.070;8.436;2023-08-30T00:29:27;99343.47;;;14.72;89.15
40730;BME280;26418;50.070;8.436;2023-08-30T00:31:53;99342.22;;;14.69;89.47
40730;BME280;26418;50.070;8.436;2023-08-30T00:34:19;99342.09;;;14.66;89.90
40730;BME280;26418;50.070;8.436;2023-08-30T00:36:44;99334.72;;;14.66;90.19
40730;BME280;26418;50.070;8.436;2023-08-30T00:39:10;99334.72;;;14.66;90.33
40730;BME280;26418;50.070;8.436;2023-08-30T00:41:35;99338.44;;;14.61;90.25
40730;BME280;26418;50.070;8.436;2023-08-30T00:44:01;99345.06;;;14.60;90.24
40730;BME280;26418;50.070;8.436;2023-08-30T00:46:27;99325.44;;;14.55;90.69
40730;BME280;26418;50.070;8.436;2023-08-30T00:48:53;99331.91;;;14.50;90.82
40730;BME280;26418;50.070;8.436;2023-08-30T00:51:19;99338.47;;;14.49;91.15
40730;BME280;26418;50.070;8.436;2023-08-30T00:53:46;99336.22;;;14.51;91.77
40730;BME280;26418;50.070;8.436;2023-08-30T00:56:11;99333.59;;;14.55;92.00
40730;BME280;26418;50.070;8.436;2023-08-30T00:58:37;99319.63;;;14.56;91.92
40730;BME280;26418;50.070;8.436;2023-08-30T01:01:04;99319.41;;;14.61;91.69
40730;BME280;26418;50.070;8.436;2023-08-30T01:03:36;99323.03;;;14.66;91.38
40730;BME280;26418;50.070;8.436;2023-08-30T01:06:03;99311.59;;;14.60;91.40
40730;BME280;26418;50.070;8.436;2023-08-30T01:08:28;99315.31;;;14.55;91.46
40730;BME280;26418;50.070;8.436;2023-08-30T01:11:05;99321.44;;;14.52;91.71
40730;BME280;26418;50.070;8.436;2023-08-30T01:13:42;99308.44;;;14.45;91.94
40730;BME280;26418;50.070;8.436;2023-08-30T01:16:08;99310.25;;;14.54;91.95
40730;BME280;26418;50.070;8.436;2023-08-30T01:18:35;99299.81;;;14.56;91.71
40730;BME280;26418;50.070;8.436;2023-08-30T01:21:04;99289.34;;;14.58;91.52
40730;BME280;26418;50.070;8.436;2023-08-30T01:23:47;99296.28;;;14.55;91.06
40730;BME280;26418;50.070;8.436;2023-08-30T01:29:19;99295.97;;;14.44;91.65
40730;BME280;26418;50.070;8.436;2023-08-30T01:31:47;99290.53;;;14.44;91.90
40730;BME280;26418;50.070;8.436;2023-08-30T01:34:14;99283.94;;;14.45;91.89
40730;BME280;26418;50.070;8.436;2023-08-30T01:36:41;99288.56;;;14.45;91.71
40730;BME280;26418;50.070;8.436;2023-08-30T01:39:09;99279.63;;;14.44;91.65
40730;BME280;26418;50.070;8.436;2023-08-30T01:41:36;99278.28;;;14.38;91.51
40730;BME280;26418;50.070;8.436;2023-08-30T01:44:03;99285.63;;;14.38;91.48
40730;BME280;26418;50.070;8.436;2023-08-30T01:46:31;99276.91;;;14.32;91.99
40730;BME280;26418;50.070;8.436;2023-08-30T01:48:58;99277.16;;;14.39;91.87
40730;BME280;26418;50.070;8.436;2023-08-30T01:51:24;99272.84;;;14.38;91.57
40730;BME280;26418;50.070;8.436;2023-08-30T01:53:51;99274.09;;;14.41;91.46
40730;BME280;26418;50.070;8.436;2023-08-30T01:56:18;99274.44;;;14.39;91.56
40730;BME280;26418;50.070;8.436;2023-08-30T01:58:43;99276.47;;;14.42;91.80
40730;BME280;26418;50.070;8.436;2023-08-30T02:01:09;99278.72;;;14.40;91.81
40730;BME280;26418;50.070;8.436;2023-08-30T02:03:35;99277.59;;;14.41;92.04
40730;BME280;26418;50.070;8.436;2023-08-30T02:06:09;99272.59;;;14.43;91.99
40730;BME280;26418;50.070;8.436;2023-08-30T02:09:09;99275.31;;;14.43;91.81
40730;BME280;26418;50.070;8.436;2023-08-30T02:11:41;99270.91;;;14.39;92.12
40730;BME280;26418;50.070;8.436;2023-08-30T02:14:10;99279.75;;;14.48;91.68
40730;BME280;26418;50.070;8.436;2023-08-30T02:16:37;99270.66;;;14.44;91.24
40730;BME280;26418;50.070;8.436;2023-08-30T02:19:05;99273.53;;;14.48;91.00
40730;BME280;26418;50.070;8.436;2023-08-30T02:21:31;99276.66;;;14.50;90.84
40730;BME280;26418;50.070;8.436;2023-08-30T02:23:57;99281.22;;;14.45;90.94
40730;BME280;26418;50.070;8.436;2023-08-30T02:26:23;99276.91;;;14.44;91.24
40730;BME280;26418;50.070;8.436;2023-08-30T02:28:48;99267.16;;;14.43;90.61
40730;BME280;26418;50.070;8.436;2023-08-30T02:31:14;99282.47;;;14.48;90.24
40730;BME280;26418;50.070;8.436;2023-08-30T02:33:39;99272.72;;;14.47;90.15
40730;BME280;26418;50.070;8.436;2023-08-30T02:36:05;99274.66;;;14.46;90.13
40730;BME280;26418;50.070;8.436;2023-08-30T02:38:31;99278.50;;;14.45;90.12
40730;BME280;26418;50.070;8.436;2023-08-30T02:40:57;99279.63;;;14.44;90.27
40730;BME280;26418;50.070;8.436;2023-08-30T02:43:22;99286.22;;;14.43;90.40
40730;BME280;26418;50.070;8.436;2023-08-30T02:45:48;99279.19;;;14.42;90.68
40730;BME280;26418;50.070;8.436;2023-08-30T02:48:16;99280.31;;;14.41;90.97
40730;BME280;26418;50.070;8.436;2023-08-30T02:50:42;99282.25;;;14.41;90.79
40730;BME280;26418;50.070;8.436;2023-08-30T02:53:07;99276.69;;;14.37;90.73
40730;BME280;26418;50.070;8.436;2023-08-30T02:55:34;99269.66;;;14.36;90.89
40730;BME280;26418;50.070;8.436;2023-08-30T02:58:00;99275.47;;;14.35;90.80
40730;BME280;26418;50.070;8.436;2023-08-30T03:00:25;99276.47;;;14.30;91.05
40730;BME280;26418;50.070;8.436;2023-08-30T03:02:51;99278.28;;;14.26;91.14
40730;BME280;26418;50.070;8.436;2023-08-30T03:05:18;99270.00;;;14.22;91.50
40730;BME280;26418;50.070;8.436;2023-08-30T03:07:43;99275.34;;;14.19;91.77
40730;BME280;26418;50.070;8.436;2023-08-30T03:10:09;99276.47;;;14.18;92.16
40730;BME280;26418;50.070;8.436;2023-08-30T03:12:35;99259.94;;;14.10;92.56
40730;BME280;26418;50.070;8.436;2023-08-30T03:15:00;99268.44;;;14.09;92.46
40730;BME280;26418;50.070;8.436;2023-08-30T03:17:26;99271.94;;;14.09;92.91
40730;BME280;26418;50.070;8.436;2023-08-30T03:19:52;99273.41;;;14.07;93.35
40730;BME280;26418;50.070;8.436;2023-08-30T03:22:18;99275.22;;;14.03;93.34
40730;BME280;26418;50.070;8.436;2023-08-30T03:24:44;99265.50;;;14.02;93.39
40730;BME280;26418;50.070;8.436;2023-08-30T03:27:10;99267.97;;;14.07;93.26
40730;BME280;26418;50.070;8.436;2023-08-30T03:29:35;99270.81;;;14.10;93.29
40730;BME280;26418;50.070;8.436;2023-08-30T03:32:01;99269.22;;;14.09;93.16
40730;BME280;26418;50.070;8.436;2023-08-30T03:34:26;99266.50;;;14.09;92.83
40730;BME280;26418;50.070;8.436;2023-08-30T03:36:52;99263.44;;;14.11;92.63
40730;BME280;26418;50.070;8.436;2023-08-30T03:39:22;99264.00;;;14.17;92.73
40730;BME280;26418;50.070;8.436;2023-08-30T03:41:49;99266.41;;;14.18;91.88
40730;BME280;26418;50.070;8.436;2023-08-30T03:44:15;99273.88;;;14.21;91.73
40730;BME280;26418;50.070;8.436;2023-08-30T03:46:41;99274.31;;;14.23;91.49
40730;BME280;26418;50.070;8.436;2023-08-30T03:49:06;99275.44;;;14.22;91.48
40730;BME280;26418;50.070;8.436;2023-08-30T03:51:32;99272.63;;;14.19;91.65
40730;BME280;26418;50.070;8.436;2023-08-30T03:53:57;99270.94;;;14.14;91.72
40730;BME280;26418;50.070;8.436;2023-08-30T03:56:23;99265.84;;;14.12;92.10
40730;BME280;26418;50.070;8.436;2023-08-30T03:58:49;99270.81;;;14.10;92.24
40730;BME280;26418;50.070;8.436;2023-08-30T04:01:14;99274.19;;;14.07;92.33
40730;BME280;26418;50.070;8.436;2023-08-30T04:03:40;99272.28;;;14.08;92.54
40730;BME280;26418;50.070;8.436;2023-08-30T04:06:05;99276.59;;;14.09;92.61
40730;BME280;26418;50.070;8.436;2023-08-30T04:08:31;99264.03;;;14.04;92.25
40730;BME280;26418;50.070;8.436;2023-08-30T04:10:57;99273.31;;;14.03;92.33
40730;BME280;26418;50.070;8.436;2023-08-30T04:13:22;99266.28;;;14.02;92.66
40730;BME280;26418;50.070;8.436;2023-08-30T04:15:48;99269.00;;;14.02;92.55
40730;BME280;26418;50.070;8.436;2023-08-30T04:18:14;99266.28;;;14.02;92.62
40730;BME280;26418;50.070;8.436;2023-08-30T04:20:44;99262.44;;;14.03;92.54
40730;BME280;26418;50.070;8.436;2023-08-30T04:23:10;99262.44;;;14.03;92.34
40730;BME280;26418;50.070;8.436;2023-08-30T04:25:36;99260.06;;;14.02;92.54
40730;BME280;26418;50.070;8.436;2023-08-30T04:28:02;99265.50;;;14.02;92.28
40730;BME280;26418;50.070;8.436;2023-08-30T04:30:28;99269.91;;;13.94;92.51
40730;BME280;26418;50.070;8.436;2023-08-30T04:32:53;99266.41;;;13.93;92.89
40730;BME280;26418;50.070;8.436;2023-08-30T04:35:19;99257.44;;;13.93;92.81
40730;BME280;26418;50.070;8.436;2023-08-30T04:37:44;99250.41;;;13.92;92.81
40730;BME280;26418;50.070;8.436;2023-08-30T04:40:10;99259.25;;;13.89;92.84
40730;BME280;26418;50.070;8.436;2023-08-30T04:42:37;99258.09;;;13.90;93.15
40730;BME280;26418;50.070;8.436;2023-08-30T04:45:03;99269.13;;;13.93;93.14
40730;BME280;26418;50.070;8.436;2023-08-30T04:47:29;99261.63;;;13.90;92.91
40730;BME280;26418;50.070;8.436;2023-08-30T04:49:56;99273.97;;;13.88;92.99
40730;BME280;26418;50.070;8.436;2023-08-30T04:52:22;99264.25;;;13.87;93.40
40730;BME280;26418;50.070;8.436;2023-08-30T04:54:47;99262.19;;;13.83;93.11
40730;BME280;26418;50.070;8.436;2023-08-30T04:57:17;99260.94;;;13.81;93.74
40730;BME280;26418;50.070;8.436;2023-08-30T04:59:43;99266.16;;;13.86;93.93
40730;BME280;26418;50.070;8.436;2023-08-30T05:02:09;99273.75;;;13.93;93.96
40730;BME280;26418;50.070;8.436;2023-08-30T05:04:36;99266.94;;;13.99;93.42
40730;BME280;26418;50.070;8.436;2023-08-30T05:07:02;99266.41;;;14.06;92.86
40730;BME280;26418;50.070;8.436;2023-08-30T05:09:29;99257.09;;;14.07;92.75
40730;BME280;26418;50.070;8.436;2023-08-30T05:11:55;99261.06;;;14.09;92.83
40730;BME280;26418;50.070;8.436;2023-08-30T05:14:21;99257.88;;;14.07;92.67
40730;BME280;26418;50.070;8.436;2023-08-30T05:16:46;99247.72;;;14.04;92.69
40730;BME280;26418;50.070;8.436;2023-08-30T05:19:12;99254.75;;;14.05;93.03
40730;BME280;26418;50.070;8.436;2023-08-30T05:21:37;99258.25;;;14.06;93.33
40730;BME280;26418;50.070;8.436;2023-08-30T05:24:04;99261.41;;;14.08;93.24
40730;BME280;26418;50.070;8.436;2023-08-30T05:26:32;99258.47;;;14.13;93.54
40730;BME280;26418;50.070;8.436;2023-08-30T05:28:58;99254.63;;;14.14;93.49
40730;BME280;26418;50.070;8.436;2023-08-30T05:31:23;99262.75;;;14.14;93.48
40730;BME280;26418;50.070;8.436;2023-08-30T05:33:49;99262.53;;;14.19;93.79
40730;BME280;26418;50.070;8.436;2023-08-30T05:36:14;99252.56;;;14.23;93.15
40730;BME280;26418;50.070;8.436;2023-08-30T05:38:40;99258.69;;;14.20;92.92
40730;BME280;26418;50.070;8.436;2023-08-30T05:41:07;99256.41;;;14.22;93.61
40730;BME280;26418;50.070;8.436;2023-08-30T05:43:33;99254.63;;;14.26;93.67
40730;BME280;26418;50.070;8.436;2023-08-30T05:45:58;99261.19;;;14.25;93.03
40730;BME280;26418;50.070;8.436;2023-08-30T05:48:28;99261.97;;;14.26;92.85
40730;BME280;26418;50.070;8.436;2023-08-30T05:50:54;99271.25;;;14.25;92.79
40730;BME280;26418;50.070;8.436;2023-08-30T05:53:20;99259.94;;;14.23;92.85
40730;BME280;26418;50.070;8.436;2023-08-30T05:55:45;99266.72;;;14.29;92.89
40730;BME280;26418;50.070;8.436;2023-08-30T05:58:11;99258.22;;;14.30;92.89
40730;BME280;26418;50.070;8.436;2023-08-30T06:00:36;99267.41;;;14.38;92.67
40730;BME280;26418;50.070;8.436;2023-08-30T06:03:03;99267.63;;;14.45;92.54
40730;BME280;26418;50.070;8.436;2023-08-30T06:05:29;99262.03;;;14.54;92.04
40730;BME280;26418;50.070;8.436;2023-08-30T06:07:55;99266.13;;;14.60;91.46
40730;BME280;26418;50.070;8.436;2023-08-30T06:10:20;99266.38;;;14.68;91.01
40730;BME280;26418;50.070;8.436;2023-08-30T06:12:46;99254.78;;;14.71;90.68
40730;BME280;26418;50.070;8.436;2023-08-30T06:15:11;99252.97;;;14.75;89.42
40730;BME280;26418;50.070;8.436;2023-08-30T06:17:37;99245.94;;;14.74;88.89
40730;BME280;26418;50.070;8.436;2023-08-30T06:20:02;99246.03;;;14.77;89.08
40730;BME280;26418;50.070;8.436;2023-08-30T06:22:28;99246.91;;;14.82;88.88
40730;BME280;26418;50.070;8.436;2023-08-30T06:24:54;99255.31;;;14.89;89.38
40730;BME280;26418;50.070;8.436;2023-08-30T06:27:19;99249.97;;;14.92;89.52
40730;BME280;26418;50.070;8.436;2023-08-30T06:29:45;99253.75;;;15.04;89.59
40730;BME280;26418;50.070;8.436;2023-08-30T06:32:11;99255.97;;;15.14;89.58
40730;BME280;26418;50.070;8.436;2023-08-30T06:34:37;99249.22;;;15.24;89.52
40730;BME280;26418;50.070;8.436;2023-08-30T06:37:02;99250.88;;;15.41;89.24
40730;BME280;26418;50.070;8.436;2023-08-30T06:39:34;99252.28;;;15.51;88.84
40730;BME280;26418;50.070;8.436;2023-08-30T06:42:04;99261.78;;;15.57;88.89
40730;BME280;26418;50.070;8.436;2023-08-30T06:44:30;99254.56;;;15.65;89.24
40730;BME280;26418;50.070;8.436;2023-08-30T06:46:56;99259.59;;;15.79;89.03
40730;BME280;26418;50.070;8.436;2023-08-30T06:49:23;99252.44;;;15.86;88.51
40730;BME280;26418;50.070;8.436;2023-08-30T06:51:48;99241.78;;;15.97;87.63
40730;BME280;26418;50.070;8.436;2023-08-30T06:54:14;99248.91;;;16.02;86.22
40730;BME280;26418;50.070;8.436;2023-08-30T06:56:40;99241.13;;;16.04;86.75
40730;BME280;26418;50.070;8.436;2023-08-30T06:59:05;99253.53;;;16.17;86.23
40730;BME280;26418;50.070;8.436;2023-08-30T07:01:31;99250.97;;;16.25;86.40
40730;BME280;26418;50.070;8.436;2023-08-30T07:03:56;99254.28;;;16.34;86.21
40730;BME280;26418;50.070;8.436;2023-08-30T07:06:22;99252.94;;;16.44;86.04
40730;BME280;26418;50.070;8.436;2023-08-30T07:08:48;99245.78;;;16.55;85.72
40730;BME280;26418;50.070;8.436;2023-08-30T07:11:13;99247.22;;;16.69;85.48
40730;BME280;26418;50.070;8.436;2023-08-30T07:13:39;99250.25;;;16.83;85.12
40730;BME280;26418;50.070;8.436;2023-08-30T07:16:04;99234.97;;;16.98;83.98
40730;BME280;26418;50.070;8.436;2023-08-30T07:18:30;99236.75;;;17.10;83.29
40730;BME280;26418;50.070;8.436;2023-08-30T07:20:55;99237.97;;;17.12;82.74
40730;BME280;26418;50.070;8.436;2023-08-30T07:23:21;99233.44;;;17.20;82.24
40730;BME280;26418;50.070;8.436;2023-08-30T07:25:46;99245.78;;;17.34;81.91
40730;BME280;26418;50.070;8.436;2023-08-30T07:28:12;99241.69;;;17.43;81.36
40730;BME280;26418;50.070;8.436;2023-08-30T07:30:37;99236.00;;;17.56;81.14
40730;BME280;26418;50.070;8.436;2023-08-30T07:33:04;99234.00;;;17.76;80.19
40730;BME280;26418;50.070;8.436;2023-08-30T07:35:30;99235.47;;;17.93;77.32
40730;BME280;26418;50.070;8.436;2023-08-30T07:37:56;99221.28;;;17.87;77.64
40730;BME280;26418;50.070;8.436;2023-08-30T07:40:21;99231.75;;;18.05;76.97
40730;BME280;26418;50.070;8.436;2023-08-30T07:42:51;99226.06;;;18.17;76.86
40730;BME280;26418;50.070;8.436;2023-08-30T07:45:18;99237.66;;;18.34;76.69
40730;BME280;26418;50.070;8.436;2023-08-30T07:47:43;99225.28;;;18.17;74.50
40730;BME280;26418;50.070;8.436;2023-08-30T07:50:09;99227.25;;;18.16;75.82
40730;BME280;26418;50.070;8.436;2023-08-30T07:52:34;99230.75;;;18.17;75.85
40730;BME280;26418;50.070;8.436;2023-08-30T07:55:00;99231.63;;;18.21;75.08
40730;BME280;26418;50.070;8.436;2023-08-30T07:57:26;99222.38;;;18.33;74.70
40730;BME280;26418;50.070;8.436;2023-08-30T07:59:52;99216.69;;;17.91;74.92
40730;BME280;26418;50.070;8.436;2023-08-30T08:02:18;99226.50;;;17.69;76.16
40730;BME280;26418;50.070;8.436;2023-08-30T08:04:43;99230.06;;;17.50;76.90
40730;BME280;26418;50.070;8.436;2023-08-30T08:07:09;99234.09;;;17.56;77.88
40730;BME280;26418;50.070;8.436;2023-08-30T08:09:35;99234.38;;;17.74;77.54
40730;BME280;26418;50.070;8.436;2023-08-30T08:12:00;99219.59;;;18.02;76.59
40730;BME280;26418;50.070;8.436;2023-08-30T08:14:26;99223.03;;;18.22;74.70
40730;BME280;26418;50.070;8.436;2023-08-30T08:16:51;99229.03;;;18.32;73.53
40730;BME280;26418;50.070;8.436;2023-08-30T08:19:17;99231.56;;;18.48;73.50
40730;BME280;26418;50.070;8.436;2023-08-30T08:21:42;99235.97;;;18.56;72.81
40730;BME280;26418;50.070;8.436;2023-08-30T08:24:08;99244.66;;;18.62;73.46
40730;BME280;26418;50.070;8.436;2023-08-30T08:26:33;99218.03;;;18.28;72.76
40730;BME280;26418;50.070;8.436;2023-08-30T08:28:59;99240.13;;;18.16;74.35
40730;BME280;26418;50.070;8.436;2023-08-30T08:31:25;99246.97;;;18.02;74.72
40730;BME280;26418;50.070;8.436;2023-08-30T08:33:51;99242.41;;;17.87;76.26
40730;BME280;26418;50.070;8.436;2023-08-30T08:36:30;99242.16;;;17.96;75.48
40730;BME280;26418;50.070;8.436;2023-08-30T08:38:55;99240.44;;;17.87;75.11
40730;BME280;26418;50.070;8.436;2023-08-30T08:41:22;99247.34;;;17.78;75.85
40730;BME280;26418;50.070;8.436;2023-08-30T08:43:53;99238.75;;;17.79;76.29
40730;BME280;26418;50.070;8.436;2023-08-30T08:46:20;99234.91;;;17.84;75.91
40730;BME280;26418;50.070;8.436;2023-08-30T08:48:49;99232.19;;;17.84;76.47
40730;BME280;26418;50.070;8.436;2023-08-30T08:51:15;99235.69;;;17.84;76.22
40730;BME280;26418;50.070;8.436;2023-08-30T08:53:42;99226.44;;;17.92;76.42
40730;BME280;26418;50.070;8.436;2023-08-30T08:56:08;99231.75;;;18.32;75.93
40730;BME280;26418;50.070;8.436;2023-08-30T08:58:36;99235.47;;;18.77;74.87
40730;BME280;26418;50.070;8.436;2023-08-30T09:01:03;99231.16;;;19.10;72.31
40730;BME280;26418;50.070;8.436;2023-08-30T09:03:32;99232.25;;;19.40;70.42
40730;BME280;26418;50.070;8.436;2023-08-30T09:05:58;99236.81;;;19.25;70.87
40730;BME280;26418;50.070;8.436;2023-08-30T09:08:25;99240.81;;;19.35;70.81
40730;BME280;26418;50.070;8.436;2023-08-30T09:10:51;99234.03;;;19.21;69.74
40730;BME280;26418;50.070;8.436;2023-08-30T09:13:17;99233.19;;;18.83;70.65
40730;BME280;26418;50.070;8.436;2023-08-30T09:15:43;99235.72;;;18.65;72.43
40730;BME280;26418;50.070;8.436;2023-08-30T09:18:16;99229.84;;;18.66;73.08
40730;BME280;26418;50.070;8.436;2023-08-30T09:20:42;99224.66;;;18.88;71.33
40730;BME280;26418;50.070;8.436;2023-08-30T09:23:34;99224.28;;;18.90;72.04
40730;BME280;26418;50.070;8.436;2023-08-30T09:26:01;99217.09;;;19.12;71.64
40730;BME280;26418;50.070;8.436;2023-08-30T09:28:28;99214.25;;;19.39;69.68
40730;BME280;26418;50.070;8.436;2023-08-30T09:30:54;99215.69;;;19.74;68.10
40730;BME280;26418;50.070;8.436;2023-08-30T09:33:28;99201.00;;;19.93;68.16
40730;BME280;26418;50.070;8.436;2023-08-30T09:35:54;99202.00;;;20.30;66.66
40730;BME280;26418;50.070;8.436;2023-08-30T09:38:20;99197.13;;;20.75;65.57
40730;BME280;26418;50.070;8.436;2023-08-30T09:40:46;99196.81;;;21.13;61.61
40730;BME280;26418;50.070;8.436;2023-08-30T09:43:13;99197.25;;;21.36;60.48
40730;BME280;26418;50.070;8.436;2023-08-30T09:45:39;99184.69;;;21.57;59.46
40730;BME280;26418;50.070;8.436;2023-08-30T09:48:06;99193.38;;;21.70;58.31
40730;BME280;26418;50.070;8.436;2023-08-30T09:50:34;99188.63;;;21.92;58.41
40730;BME280;26418;50.070;8.436;2023-08-30T09:53:06;99172.84;;;22.18;57.17
40730;BME280;26418;50.070;8.436;2023-08-30T09:55:33;99176.34;;;22.22;57.49
40730;BME280;26418;50.070;8.436;2023-08-30T09:58:01;99172.78;;;22.33;56.07
40730;BME280;26418;50.070;8.436;2023-08-30T10:00:27;99170.84;;;22.40;55.49
40730;BME280;26418;50.070;8.436;2023-08-30T10:02:53;99164.06;;;22.59;55.54
40730;BME280;26418;50.070;8.436;2023-08-30T10:05:19;99167.84;;;22.91;55.05
40730;BME280;26418;50.070;8.436;2023-08-30T10:07:46;99166.94;;;23.05;54.19
40730;BME280;26418;50.070;8.436;2023-08-30T10:10:12;99162.59;;;23.11;53.37
40730;BME280;26418;50.070;8.436;2023-08-30T10:12:39;99156.53;;;23.34;53.14
40730;BME280;26418;50.070;8.436;2023-08-30T10:15:05;99140.34;;;23.36;51.37
40730;BME280;26418;50.070;8.436;2023-08-30T10:17:32;99151.63;;;23.53;51.79
40730;BME280;26418;50.070;8.436;2023-08-30T10:20:04;99148.38;;;23.65;51.23
40730;BME280;26418;50.070;8.436;2023-08-30T10:22:37;99151.72;;;23.88;51.10
40730;BME280;26418;50.070;8.436;2023-08-30T10:25:06;99140.06;;;24.11;50.58
40730;BME280;26418;50.070;8.436;2023-08-30T10:27:35;99139.16;;;24.52;50.08
40730;BME280;26418;50.070;8.436;2023-08-30T10:30:04;99133.13;;;24.61;48.48
40730;BME280;26418;50.070;8.436;2023-08-30T10:32:32;99140.38;;;24.51;48.56
40730;BME280;26418;50.070;8.436;2023-08-30T10:35:01;99131.75;;;24.76;48.52
40730;BME280;26418;50.070;8.436;2023-08-30T10:37:29;99133.97;;;24.89;47.66
40730;BME280;26418;50.070;8.436;2023-08-30T10:40:00;99142.88;;;25.00;47.15
40730;BME280;26418;50.070;8.436;2023-08-30T10:42:29;99141.25;;;25.03;46.81
40730;BME280;26418;50.070;8.436;2023-08-30T10:45:04;99133.97;;;24.58;47.33
40730;BME280;26418;50.070;8.436;2023-08-30T10:47:31;99125.72;;;24.23;49.06
40730;BME280;26418;50.070;8.436;2023-08-30T10:50:05;99141.03;;;23.90;49.85
40730;BME280;26418;50.070;8.436;2023-08-30T10:52:31;99125.16;;;23.63;50.07
40730;BME280;26418;50.070;8.436;2023-08-30T10:55:11;99128.19;;;23.30;49.83
40730;BME280;26418;50.070;8.436;2023-08-30T10:57:40;99124.28;;;23.28;50.79
40730;BME280;26418;50.070;8.436;2023-08-30T11:00:19;99122.91;;;22.94;50.45
40730;BME280;26418;50.070;8.436;2023-08-30T11:02:48;99125.75;;;22.80;51.06
40730;BME280;26418;50.070;8.436;2023-08-30T11:05:15;99122.94;;;22.90;51.38
40730;BME280;26418;50.070;8.436;2023-08-30T11:07:43;99114.47;;;23.19;50.69
40730;BME280;26418;50.070;8.436;2023-08-30T11:10:09;99111.88;;;23.47;49.94
40730;BME280;26418;50.070;8.436;2023-08-30T11:12:35;99104.66;;;23.60;49.97
40730;BME280;26418;50.070;8.436;2023-08-30T11:15:01;99101.81;;;23.71;49.20
40730;BME280;26418;50.070;8.436;2023-08-30T11:17:28;99099.03;;;23.71;47.61
40730;BME280;26418;50.070;8.436;2023-08-30T11:20:04;99095.09;;;23.68;48.24
40730;BME280;26418;50.070;8.436;2023-08-30T11:22:31;99095.69;;;23.87;47.95
40730;BME280;26418;50.070;8.436;2023-08-30T11:24:57;99093.66;;;24.29;47.70
40730;BME280;26418;50.070;8.436;2023-08-30T11:27:23;99089.03;;;24.81;45.81
40730;BME280;26418;50.070;8.436;2023-08-30T11:29:49;99088.50;;;25.41;44.07
40730;BME280;26418;50.070;8.436;2023-08-30T11:32:14;99078.59;;;25.64;40.85
40730;BME280;26418;50.070;8.436;2023-08-30T11:34:41;99078.06;;;25.93;40.12
40730;BME280;26418;50.070;8.436;2023-08-30T11:37:07;99067.81;;;25.89;39.60
40730;BME280;26418;50.070;8.436;2023-08-30T11:39:33;99071.66;;;25.96;38.31
40730;BME280;26418;50.070;8.436;2023-08-30T11:41:59;99072.00;;;25.98;38.96
40730;BME280;26418;50.070;8.436;2023-08-30T11:44:28;99068.94;;;25.92;39.25
40730;BME280;26418;50.070;8.436;2023-08-30T11:47:00;99068.41;;;25.57;40.25
40730;BME280;26418;50.070;8.436;2023-08-30T11:49:27;99067.59;;;25.60;39.59
40730;BME280;26418;50.070;8.436;2023-08-30T11:51:54;99074.03;;;25.53;39.03
40730;BME280;26418;50.070;8.436;2023-08-30T11:54:23;99052.47;;;25.85;40.03
40730;BME280;26418;50.070;8.436;2023-08-30T11:56:50;99061.34;;;26.36;39.33
40730;BME280;26418;50.070;8.436;2023-08-30T11:59:20;99058.06;;;26.58;39.38
40730;BME280;26418;50.070;8.436;2023-08-30T12:01:46;99052.72;;;26.67;39.44
40730;BME280;26418;50.070;8.436;2023-08-30T12:04:12;99046.44;;;27.00;38.81
40730;BME280;26418;50.070;8.436;2023-08-30T12:06:37;99040.63;;;26.94;36.65
40730;BME280;26418;50.070;8.436;2023-08-30T12:09:03;99051.50;;;27.18;36.75
40730;BME280;26418;50.070;8.436;2023-08-30T12:11:31;99050.84;;;27.14;34.42
40730;BME280;26418;50.070;8.436;2023-08-30T12:14:03;99051.03;;;26.90;33.87
40730;BME280;26418;50.070;8.436;2023-08-30T12:16:29;99049.09;;;27.20;34.54
40730;BME280;26418;50.070;8.436;2023-08-30T12:18:54;99044.16;;;27.28;33.97
40730;BME280;26418;50.070;8.436;2023-08-30T12:21:20;99043.47;;;26.91;33.50
40730;BME280;26418;50.070;8.436;2023-08-30T12:23:46;99042.78;;;26.87;35.02
40730;BME280;26418;50.070;8.436;2023-08-30T12:26:12;99044.88;;;26.82;35.13
40730;BME280;26418;50.070;8.436;2023-08-30T12:28:41;99038.94;;;26.64;36.03
40730;BME280;26418;50.070;8.436;2023-08-30T12:31:09;99032.31;;;26.41;36.10
40730;BME280;26418;50.070;8.436;2023-08-30T12:33:36;99044.66;;;26.20;36.67
40730;BME280;26418;50.070;8.436;2023-08-30T12:36:03;99037.47;;;26.02;37.13
40730;BME280;26418;50.070;8.436;2023-08-30T12:38:30;99028.53;;;25.74;37.21
40730;BME280;26418;50.070;8.436;2023-08-30T12:40:56;99030.03;;;25.59;37.22
40730;BME280;26418;50.070;8.436;2023-08-30T12:43:23;99036.97;;;25.47;37.89
40730;BME280;26418;50.070;8.436;2023-08-30T12:45:49;99038.72;;;25.37;38.49
40730;BME280;26418;50.070;8.436;2023-08-30T12:48:16;99033.59;;;25.12;38.33
40730;BME280;26418;50.070;8.436;2023-08-30T12:50:47;99041.41;;;24.70;39.38
40730;BME280;26418;50.070;8.436;2023-08-30T12:53:14;99040.19;;;24.71;39.00
40730;BME280;26418;50.070;8.436;2023-08-30T12:55:43;99044.78;;;24.54;39.53
40730;BME280;26418;50.070;8.436;2023-08-30T12:58:09;99033.72;;;24.54;39.58
40730;BME280;26418;50.070;8.436;2023-08-30T13:00:35;99028.63;;;24.79;39.32